sensor_id;sensor_type;location;lat;lon;timestamp;temperature;humidity
13436;DHT22;6790;49.520;8.504;2023-04-24T00:02:15;11.30;99.90
13436;DHT22;6790;49.520;8.504;2023-04-24T00:04:41;11.30;99.90
13436;DHT22;6790;49.520;8.504;2023-04-24T00:07:10;11.30;99.90
13436;DHT22;6790;49.520;8.504;2023-04-24T00:09:36;11.30;99.90
13436;DHT22;6790;49.520;8.504;2023-04-24T00:12:02;11.30;99.90
13436;DHT22;6790;49.520;8.504;2023-04-24T00:14:31;11.30;99.90
13436;DHT22;6790;49.520;8.504;2023-04-24T00:16:57;11.30;99.90
13436;DHT22;6790;49.520;8.504;2023-04-24T00:19:23;11.30;99.90
13436;DHT22;6790;49.520;8.504;2023-04-24T00:21:49;11.20;99.90
13436;DHT22;6790;49.520;8.504;2023-04-24T00:24:16;11.10;99.90
13436;DHT22;6790;49.520;8.504;2023-04-24T00:26:42;11.10;99.90
13436;DHT22;6790;49.520;8.504;2023-04-24T00:29:08;11.10;99.90
13436;DHT22;6790;49.520;8.504;2023-04-24T00:31:33;11.10;99.90
13436;DHT22;6790;49.520;8.504;2023-04-24T00:34:03;11.20;99.90
13436;DHT22;6790;49.520;8.504;2023-04-24T00:36:29;11.20;99.90
13436;DHT22;6790;49.520;8.504;2023-04-24T00:38:56;11.20;99.90
13436;DHT22;6790;49.520;8.504;2023-04-24T00:41:22;11.30;99.90
13436;DHT22;6790;49.520;8.504;2023-04-24T00:43:48;11.30;99.90
13436;DHT22;6790;49.520;8.504;2023-04-24T00:46:14;11.30;99.90
13436;DHT22;6790;49.520;8.504;2023-04-24T00:48:41;11.30;99.90
13436;DHT22;6790;49.520;8.504;2023-04-24T00:51:08;11.30;99.90
13436;DHT22;6790;49.520;8.504;2023-04-24T00:53:34;11.30;99.90
13436;DHT22;6790;49.520;8.504;2023-04-24T00:56:00;11.30;99.90
13436;DHT22;6790;49.520;8.504;2023-04-24T00:58:26;11.20;99.90
13436;DHT22;6790;49.520;8.504;2023-04-24T01:00:52;11.20;99.90
13436;DHT22;6790;49.520;8.504;2023-04-24T01:03:25;11.20;99.90
13436;DHT22;6790;49.520;8.504;2023-04-24T01:05:54;11.30;99.90
13436;DHT22;6790;49.520;8.504;2023-04-24T01:08:22;11.30;99.90
13436;DHT22;6790;49.520;8.504;2023-04-24T01:10:51;11.30;99.90
13436;DHT22;6790;49.520;8.504;2023-04-24T01:13:18;11.20;99.90
13436;DHT22;6790;49.520;8.504;2023-04-24T01:15:45;11.20;99.90
13436;DHT22;6790;49.520;8.504;2023-04-24T01:18:11;11.10;99.90
13436;DHT22;6790;49.520;8.504;2023-04-24T01:20:39;11.10;99.90
13436;DHT22;6790;49.520;8.504;2023-04-24T01:23:06;11.10;99.90
13436;DHT22;6790;49.520;8.504;2023-04-24T01:25:32;11.20;99.90
13436;DHT22;6790;49.520;8.504;2023-04-24T01:27:59;11.20;99.90
13436;DHT22;6790;49.520;8.504;2023-04-24T01:30:28;11.20;99.90
13436;DHT22;6790;49.520;8.504;2023-04-24T01:32:55;11.20;99.90
13436;DHT22;6790;49.520;8.504;2023-04-24T01:35:21;11.20;99.90
13436;DHT22;6790;49.520;8.504;2023-04-24T01:37:47;11.20;99.90
13436;DHT22;6790;49.520;8.504;2023-04-24T01:40:12;11.10;99.90
13436;DHT22;6790;49.520;8.504;2023-04-24T01:42:38;11.10;99.90
13436;DHT22;6790;49.520;8.504;2023-04-24T01:45:06;11.20;99.90
13436;DHT22;6790;49.520;8.504;2023-04-24T01:47:34;11.20;99.90
13436;DHT22;6790;49.520;8.504;2023-04-24T01:50:00;11.20;99.90
13436;DHT22;6790;49.520;8.504;2023-04-24T01:52:25;11.20;99.90
13436;DHT22;6790;49.520;8.504;2023-04-24T01:54:52;11.20;99.90
13436;DHT22;6790;49.520;8.504;2023-04-24T01:57:18;11.20;99.90
13436;DHT22;6790;49.520;8.504;2023-04-24T01:59:44;11.30;99.90
13436;DHT22;6790;49.520;8.504;2023-04-24T02:02:09;11.30;99.90
13436;DHT22;6790;49.520;8.504;2023-04-24T02:04:35;11.20;99.90
13436;DHT22;6790;49.520;8.504;2023-04-24T02:07:01;11.20;99.90
13436;DHT22;6790;49.520;8.504;2023-04-24T02:09:26;11.20;99.90
13436;DHT22;6790;49.520;8.504;2023-04-24T02:11:52;11.20;99.90
13436;DHT22;6790;49.520;8.504;2023-04-24T02:14:18;11.20;99.90
13436;DHT22;6790;49.520;8.504;2023-04-24T02:16:43;11.20;99.90
13436;DHT22;6790;49.520;8.504;2023-04-24T02:19:10;11.20;99.90
13436;DHT22;6790;49.520;8.504;2023-04-24T02:21:36;11.20;99.90
13436;DHT22;6790;49.520;8.504;2023-04-24T02:24:01;11.20;99.90
13436;DHT22;6790;49.520;8.504;2023-04-24T02:26:27;11.20;99.90
13436;DHT22;6790;49.520;8.504;2023-04-24T02:28:53;11.20;99.90
13436;DHT22;6790;49.520;8.504;2023-04-24T02:31:19;11.10;99.90
13436;DHT22;6790;49.520;8.504;2023-04-24T02:33:44;11.00;99.90
13436;DHT22;6790;49.520;8.504;2023-04-24T02:36:10;11.00;99.90
13436;DHT22;6790;49.520;8.504;2023-04-24T02:38:36;11.00;99.90
13436;DHT22;6790;49.520;8.504;2023-04-24T02:41:01;10.90;99.90
13436;DHT22;6790;49.520;8.504;2023-04-24T02:43:31;10.80;99.90
13436;DHT22;6790;49.520;8.504;2023-04-24T02:45:58;10.80;99.90
13436;DHT22;6790;49.520;8.504;2023-04-24T02:48:24;10.60;99.90
13436;DHT22;6790;49.520;8.504;2023-04-24T02:50:49;10.50;99.90
13436;DHT22;6790;49.520;8.504;2023-04-24T02:53:16;10.20;99.90
13436;DHT22;6790;49.520;8.504;2023-04-24T02:55:41;10.10;99.90
13436;DHT22;6790;49.520;8.504;2023-04-24T02:58:07;10.10;99.90
13436;DHT22;6790;49.520;8.504;2023-04-24T03:00:33;10.00;99.90
13436;DHT22;6790;49.520;8.504;2023-04-24T03:02:58;10.00;99.90
13436;DHT22;6790;49.520;8.504;2023-04-24T03:05:25;9.90;99.90
13436;DHT22;6790;49.520;8.504;2023-04-24T03:07:50;9.80;99.90
13436;DHT22;6790;49.520;8.504;2023-04-24T03:10:18;9.80;99.90
13436;DHT22;6790;49.520;8.504;2023-04-24T03:12:44;9.80;99.90
13436;DHT22;6790;49.520;8.504;2023-04-24T03:15:10;9.70;99.90
13436;DHT22;6790;49.520;8.504;2023-04-24T03:17:35;9.80;99.90
13436;DHT22;6790;49.520;8.504;2023-04-24T03:20:02;9.70;99.90
13436;DHT22;6790;49.520;8.504;2023-04-24T03:22:30;9.70;99.90
13436;DHT22;6790;49.520;8.504;2023-04-24T03:24:58;9.70;99.90
13436;DHT22;6790;49.520;8.504;2023-04-24T03:27:23;9.60;99.90
13436;DHT22;6790;49.520;8.504;2023-04-24T03:29:49;9.60;99.90
13436;DHT22;6790;49.520;8.504;2023-04-24T03:32:19;9.70;99.90
13436;DHT22;6790;49.520;8.504;2023-04-24T03:34:44;9.70;99.90
13436;DHT22;6790;49.520;8.504;2023-04-24T03:37:10;9.60;99.90
13436;DHT22;6790;49.520;8.504;2023-04-24T03:39:36;9.60;99.90
13436;DHT22;6790;49.520;8.504;2023-04-24T03:42:01;9.60;99.90
13436;DHT22;6790;49.520;8.504;2023-04-24T03:44:27;9.60;99.90
13436;DHT22;6790;49.520;8.504;2023-04-24T03:46:53;9.50;99.90
13436;DHT22;6790;49.520;8.504;2023-04-24T03:49:19;9.40;99.90
13436;DHT22;6790;49.520;8.504;2023-04-24T03:51:44;9.40;99.90
13436;DHT22;6790;49.520;8.504;2023-04-24T03:54:10;9.30;99.90
13436;DHT22;6790;49.520;8.504;2023-04-24T03:56:36;9.30;99.90
13436;DHT22;6790;49.520;8.504;2023-04-24T03:59:02;9.20;99.90
13436;DHT22;6790;49.520;8.504;2023-04-24T04:01:27;9.10;99.90
13436;DHT22;6790;49.520;8.504;2023-04-24T04:03:53;9.10;99.90
13436;DHT22;6790;49.520;8.504;2023-04-24T04:06:19;9.00;99.90
13436;DHT22;6790;49.520;8.504;2023-04-24T04:08:46;9.00;99.90
13436;DHT22;6790;49.520;8.504;2023-04-24T04:11:12;8.90;99.90
13436;DHT22;6790;49.520;8.504;2023-04-24T04:13:38;8.80;99.90
13436;DHT22;6790;49.520;8.504;2023-04-24T04:16:04;8.70;99.90
13436;DHT22;6790;49.520;8.504;2023-04-24T04:18:30;8.70;99.90
13436;DHT22;6790;49.520;8.504;2023-04-24T04:20:55;8.60;99.90
13436;DHT22;6790;49.520;8.504;2023-04-24T04:23:22;8.70;99.90
13436;DHT22;6790;49.520;8.504;2023-04-24T04:25:48;8.70;99.90
13436;DHT22;6790;49.520;8.504;2023-04-24T04:28:15;8.70;99.90
13436;DHT22;6790;49.520;8.504;2023-04-24T04:30:40;8.70;99.90
13436;DHT22;6790;49.520;8.504;2023-04-24T04:33:06;8.70;99.90
13436;DHT22;6790;49.520;8.504;2023-04-24T04:35:33;8.60;99.90
13436;DHT22;6790;49.520;8.504;2023-04-24T04:37:59;8.60;99.90
13436;DHT22;6790;49.520;8.504;2023-04-24T04:40:25;8.50;99.90
13436;DHT22;6790;49.520;8.504;2023-04-24T04:42:52;8.60;99.90
13436;DHT22;6790;49.520;8.504;2023-04-24T04:45:18;8.60;99.90
13436;DHT22;6790;49.520;8.504;2023-04-24T04:47:46;8.60;99.90
13436;DHT22;6790;49.520;8.504;2023-04-24T04:50:11;8.50;99.90
13436;DHT22;6790;49.520;8.504;2023-04-24T04:52:37;8.60;99.90
13436;DHT22;6790;49.520;8.504;2023-04-24T04:55:03;8.50;99.90
13436;DHT22;6790;49.520;8.504;2023-04-24T04:57:30;8.60;99.90
13436;DHT22;6790;49.520;8.504;2023-04-24T04:59:56;8.60;99.90
13436;DHT22;6790;49.520;8.504;2023-04-24T05:02:22;8.60;99.90
13436;DHT22;6790;49.520;8.504;2023-04-24T05:04:47;8.60;99.90
13436;DHT22;6790;49.520;8.504;2023-04-24T05:07:13;8.60;99.90
13436;DHT22;6790;49.520;8.504;2023-04-24T05:09:39;8.70;99.90
13436;DHT22;6790;49.520;8.504;2023-04-24T05:12:05;8.80;99.90
13436;DHT22;6790;49.520;8.504;2023-04-24T05:14:30;8.90;99.90
13436;DHT22;6790;49.520;8.504;2023-04-24T05:16:56;9.00;99.90
13436;DHT22;6790;49.520;8.504;2023-04-24T05:19:22;9.20;99.90
13436;DHT22;6790;49.520;8.504;2023-04-24T05:21:47;9.40;99.90
13436;DHT22;6790;49.520;8.504;2023-04-24T05:24:13;9.40;99.90
13436;DHT22;6790;49.520;8.504;2023-04-24T05:26:39;9.50;99.90
13436;DHT22;6790;49.520;8.504;2023-04-24T05:29:04;9.50;99.90
13436;DHT22;6790;49.520;8.504;2023-04-24T05:31:31;9.60;99.90
13436;DHT22;6790;49.520;8.504;2023-04-24T05:33:56;9.50;99.90
13436;DHT22;6790;49.520;8.504;2023-04-24T05:36:22;9.50;99.90
13436;DHT22;6790;49.520;8.504;2023-04-24T05:38:47;9.40;99.90
13436;DHT22;6790;49.520;8.504;2023-04-24T05:41:14;9.30;99.90
13436;DHT22;6790;49.520;8.504;2023-04-24T05:43:40;9.30;99.90
13436;DHT22;6790;49.520;8.504;2023-04-24T05:46:05;9.30;99.90
13436;DHT22;6790;49.520;8.504;2023-04-24T05:48:31;9.40;99.90
13436;DHT22;6790;49.520;8.504;2023-04-24T05:50:57;9.60;99.90
13436;DHT22;6790;49.520;8.504;2023-04-24T05:53:22;9.80;99.90
13436;DHT22;6790;49.520;8.504;2023-04-24T05:55:48;9.80;99.90
13436;DHT22;6790;49.520;8.504;2023-04-24T05:58:14;9.70;99.90
13436;DHT22;6790;49.520;8.504;2023-04-24T06:00:40;9.70;99.90
13436;DHT22;6790;49.520;8.504;2023-04-24T06:03:08;9.90;99.90
13436;DHT22;6790;49.520;8.504;2023-04-24T06:05:34;9.80;99.90
13436;DHT22;6790;49.520;8.504;2023-04-24T06:08:00;9.70;99.90
13436;DHT22;6790;49.520;8.504;2023-04-24T06:10:25;9.70;99.90
13436;DHT22;6790;49.520;8.504;2023-04-24T06:12:51;9.80;99.90
13436;DHT22;6790;49.520;8.504;2023-04-24T06:15:17;9.80;99.90
13436;DHT22;6790;49.520;8.504;2023-04-24T06:17:42;10.00;99.90
13436;DHT22;6790;49.520;8.504;2023-04-24T06:20:08;10.00;99.90
13436;DHT22;6790;49.520;8.504;2023-04-24T06:22:36;10.00;99.90
13436;DHT22;6790;49.520;8.504;2023-04-24T06:25:02;10.00;99.90
13436;DHT22;6790;49.520;8.504;2023-04-24T06:27:27;10.10;99.90
13436;DHT22;6790;49.520;8.504;2023-04-24T06:29:53;10.10;99.90
13436;DHT22;6790;49.520;8.504;2023-04-24T06:32:24;10.10;99.90
13436;DHT22;6790;49.520;8.504;2023-04-24T06:34:53;10.00;99.90
13436;DHT22;6790;49.520;8.504;2023-04-24T06:37:22;10.00;99.90
13436;DHT22;6790;49.520;8.504;2023-04-24T06:39:48;9.90;99.90
13436;DHT22;6790;49.520;8.504;2023-04-24T06:42:13;10.00;99.90
13436;DHT22;6790;49.520;8.504;2023-04-24T06:44:39;10.00;99.90
13436;DHT22;6790;49.520;8.504;2023-04-24T06:47:09;9.90;99.90
13436;DHT22;6790;49.520;8.504;2023-04-24T06:49:38;10.00;99.90
13436;DHT22;6790;49.520;8.504;2023-04-24T06:52:04;10.00;99.90
13436;DHT22;6790;49.520;8.504;2023-04-24T06:54:31;9.90;99.90
13436;DHT22;6790;49.520;8.504;2023-04-24T06:56:57;9.90;99.90
13436;DHT22;6790;49.520;8.504;2023-04-24T06:59:26;9.90;99.90
13436;DHT22;6790;49.520;8.504;2023-04-24T07:01:52;9.90;99.90
13436;DHT22;6790;49.520;8.504;2023-04-24T07:04:18;9.90;99.90
13436;DHT22;6790;49.520;8.504;2023-04-24T07:06:45;10.10;99.90
13436;DHT22;6790;49.520;8.504;2023-04-24T07:09:11;10.20;99.90
13436;DHT22;6790;49.520;8.504;2023-04-24T07:11:39;10.20;99.90
13436;DHT22;6790;49.520;8.504;2023-04-24T07:14:06;10.40;99.90
13436;DHT22;6790;49.520;8.504;2023-04-24T07:16:32;10.40;99.90
13436;DHT22;6790;49.520;8.504;2023-04-24T07:18:58;10.50;99.90
13436;DHT22;6790;49.520;8.504;2023-04-24T07:21:23;10.70;99.90
13436;DHT22;6790;49.520;8.504;2023-04-24T07:23:49;10.80;99.90
13436;DHT22;6790;49.520;8.504;2023-04-24T07:26:15;10.80;99.90
13436;DHT22;6790;49.520;8.504;2023-04-24T07:28:41;10.90;99.90
13436;DHT22;6790;49.520;8.504;2023-04-24T07:31:07;11.00;99.90
13436;DHT22;6790;49.520;8.504;2023-04-24T07:33:33;10.80;99.90
13436;DHT22;6790;49.520;8.504;2023-04-24T07:35:59;10.60;99.90
13436;DHT22;6790;49.520;8.504;2023-04-24T07:38:25;10.50;99.90
13436;DHT22;6790;49.520;8.504;2023-04-24T07:40:51;10.40;99.90
13436;DHT22;6790;49.520;8.504;2023-04-24T07:43:19;10.50;99.90
13436;DHT22;6790;49.520;8.504;2023-04-24T07:45:45;10.70;99.90
13436;DHT22;6790;49.520;8.504;2023-04-24T07:48:12;11.00;99.90
13436;DHT22;6790;49.520;8.504;2023-04-24T07:50:40;11.20;99.90
13436;DHT22;6790;49.520;8.504;2023-04-24T07:53:05;11.70;99.90
13436;DHT22;6790;49.520;8.504;2023-04-24T07:55:31;12.20;99.90
13436;DHT22;6790;49.520;8.504;2023-04-24T07:57:57;12.50;99.90
13436;DHT22;6790;49.520;8.504;2023-04-24T08:00:22;12.40;99.90
13436;DHT22;6790;49.520;8.504;2023-04-24T08:02:48;11.90;99.90
13436;DHT22;6790;49.520;8.504;2023-04-24T08:05:14;11.20;99.90
13436;DHT22;6790;49.520;8.504;2023-04-24T08:07:40;11.00;99.90
13436;DHT22;6790;49.520;8.504;2023-04-24T08:10:09;11.50;99.90
13436;DHT22;6790;49.520;8.504;2023-04-24T08:12:36;11.70;99.90
13436;DHT22;6790;49.520;8.504;2023-04-24T08:15:02;11.90;99.90
13436;DHT22;6790;49.520;8.504;2023-04-24T08:17:28;11.90;99.90
13436;DHT22;6790;49.520;8.504;2023-04-24T08:19:54;12.20;99.90
13436;DHT22;6790;49.520;8.504;2023-04-24T08:22:29;12.50;99.90
13436;DHT22;6790;49.520;8.504;2023-04-24T08:24:55;12.10;99.90
13436;DHT22;6790;49.520;8.504;2023-04-24T08:27:22;11.80;99.90
13436;DHT22;6790;49.520;8.504;2023-04-24T08:29:49;11.70;99.90
13436;DHT22;6790;49.520;8.504;2023-04-24T08:32:15;11.60;99.90
13436;DHT22;6790;49.520;8.504;2023-04-24T08:34:41;11.40;99.90
13436;DHT22;6790;49.520;8.504;2023-04-24T08:37:06;11.10;99.90
13436;DHT22;6790;49.520;8.504;2023-04-24T08:39:32;11.10;99.90
13436;DHT22;6790;49.520;8.504;2023-04-24T08:42:00;11.20;99.90
13436;DHT22;6790;49.520;8.504;2023-04-24T08:44:32;11.60;99.90
13436;DHT22;6790;49.520;8.504;2023-04-24T08:46:58;11.70;99.90
13436;DHT22;6790;49.520;8.504;2023-04-24T08:49:24;11.90;99.90
13436;DHT22;6790;49.520;8.504;2023-04-24T08:51:52;12.60;99.90
13436;DHT22;6790;49.520;8.504;2023-04-24T08:54:18;12.60;99.90
13436;DHT22;6790;49.520;8.504;2023-04-24T08:56:44;12.40;99.90
13436;DHT22;6790;49.520;8.504;2023-04-24T08:59:13;12.30;99.90
13436;DHT22;6790;49.520;8.504;2023-04-24T09:01:40;12.10;99.90
13436;DHT22;6790;49.520;8.504;2023-04-24T09:04:08;12.10;99.90
13436;DHT22;6790;49.520;8.504;2023-04-24T09:06:39;11.90;99.90
13436;DHT22;6790;49.520;8.504;2023-04-24T09:09:05;11.80;99.90
13436;DHT22;6790;49.520;8.504;2023-04-24T09:11:31;11.70;99.90
13436;DHT22;6790;49.520;8.504;2023-04-24T09:14:00;11.70;99.90
13436;DHT22;6790;49.520;8.504;2023-04-24T09:16:27;11.60;99.90
13436;DHT22;6790;49.520;8.504;2023-04-24T09:18:53;11.40;99.90
13436;DHT22;6790;49.520;8.504;2023-04-24T09:21:21;11.40;99.90
13436;DHT22;6790;49.520;8.504;2023-04-24T09:23:58;11.60;99.90
13436;DHT22;6790;49.520;8.504;2023-04-24T09:26:24;12.00;99.90
13436;DHT22;6790;49.520;8.504;2023-04-24T09:28:50;12.10;99.90
13436;DHT22;6790;49.520;8.504;2023-04-24T09:31:17;12.20;99.90
13436;DHT22;6790;49.520;8.504;2023-04-24T09:33:54;12.30;99.90
13436;DHT22;6790;49.520;8.504;2023-04-24T09:36:32;12.30;99.90
13436;DHT22;6790;49.520;8.504;2023-04-24T09:39:00;12.20;99.90
13436;DHT22;6790;49.520;8.504;2023-04-24T09:41:27;12.10;99.90
13436;DHT22;6790;49.520;8.504;2023-04-24T09:43:55;12.10;99.90
13436;DHT22;6790;49.520;8.504;2023-04-24T09:46:28;12.00;99.90
13436;DHT22;6790;49.520;8.504;2023-04-24T09:48:54;11.70;99.90
13436;DHT22;6790;49.520;8.504;2023-04-24T09:51:36;11.50;99.90
13436;DHT22;6790;49.520;8.504;2023-04-24T09:54:19;11.50;99.90
13436;DHT22;6790;49.520;8.504;2023-04-24T09:56:48;11.30;99.90
13436;DHT22;6790;49.520;8.504;2023-04-24T09:59:17;11.20;99.90
13436;DHT22;6790;49.520;8.504;2023-04-24T10:01:44;11.20;99.90
13436;DHT22;6790;49.520;8.504;2023-04-24T10:04:16;11.50;99.90
13436;DHT22;6790;49.520;8.504;2023-04-24T10:06:47;11.60;99.90
13436;DHT22;6790;49.520;8.504;2023-04-24T10:09:14;12.00;99.90
13436;DHT22;6790;49.520;8.504;2023-04-24T10:11:46;12.30;99.90
13436;DHT22;6790;49.520;8.504;2023-04-24T10:14:14;12.40;99.90
13436;DHT22;6790;49.520;8.504;2023-04-24T10:16:43;12.80;99.90
13436;DHT22;6790;49.520;8.504;2023-04-24T10:19:09;12.70;99.90
13436;DHT22;6790;49.520;8.504;2023-04-24T10:21:36;12.40;99.90
13436;DHT22;6790;49.520;8.504;2023-04-24T10:24:08;12.30;99.90
13436;DHT22;6790;49.520;8.504;2023-04-24T10:26:34;12.30;99.90
13436;DHT22;6790;49.520;8.504;2023-04-24T10:29:01;12.90;99.90
13436;DHT22;6790;49.520;8.504;2023-04-24T10:31:29;13.30;99.90
13436;DHT22;6790;49.520;8.504;2023-04-24T10:33:57;13.70;99.90
13436;DHT22;6790;49.520;8.504;2023-04-24T10:36:24;14.20;99.90
13436;DHT22;6790;49.520;8.504;2023-04-24T10:38:52;14.70;99.90
13436;DHT22;6790;49.520;8.504;2023-04-24T10:41:20;14.60;99.90
13436;DHT22;6790;49.520;8.504;2023-04-24T10:43:48;15.10;99.90
13436;DHT22;6790;49.520;8.504;2023-04-24T10:46:36;14.40;99.90
13436;DHT22;6790;49.520;8.504;2023-04-24T10:49:07;13.80;99.90
13436;DHT22;6790;49.520;8.504;2023-04-24T10:51:50;13.50;99.90
13436;DHT22;6790;49.520;8.504;2023-04-24T10:54:41;13.40;99.90
13436;DHT22;6790;49.520;8.504;2023-04-24T10:59:51;12.60;99.90
13436;DHT22;6790;49.520;8.504;2023-04-24T11:02:38;12.30;99.90
13436;DHT22;6790;49.520;8.504;2023-04-24T11:05:06;12.10;99.90
13436;DHT22;6790;49.520;8.504;2023-04-24T11:08:10;12.10;99.90
13436;DHT22;6790;49.520;8.504;2023-04-24T11:10:56;12.10;99.90
13436;DHT22;6790;49.520;8.504;2023-04-24T11:13:24;12.30;99.90
13436;DHT22;6790;49.520;8.504;2023-04-24T11:16:14;12.20;99.90
13436;DHT22;6790;49.520;8.504;2023-04-24T11:18:44;12.10;99.90
13436;DHT22;6790;49.520;8.504;2023-04-24T11:21:19;12.10;99.90
13436;DHT22;6790;49.520;8.504;2023-04-24T11:23:46;12.10;99.90
13436;DHT22;6790;49.520;8.504;2023-04-24T11:26:21;12.10;99.90
13436;DHT22;6790;49.520;8.504;2023-04-24T11:28:52;12.30;99.90
13436;DHT22;6790;49.520;8.504;2023-04-24T11:31:37;12.60;99.90
13436;DHT22;6790;49.520;8.504;2023-04-24T11:34:12;13.10;99.90
13436;DHT22;6790;49.520;8.504;2023-04-24T11:36:40;12.80;99.90
13436;DHT22;6790;49.520;8.504;2023-04-24T11:39:08;12.60;99.90
13436;DHT22;6790;49.520;8.504;2023-04-24T11:41:35;12.50;99.90
13436;DHT22;6790;49.520;8.504;2023-04-24T11:44:01;12.70;99.90
13436;DHT22;6790;49.520;8.504;2023-04-24T11:46:30;12.70;99.90
13436;DHT22;6790;49.520;8.504;2023-04-24T11:48:57;12.50;99.90
13436;DHT22;6790;49.520;8.504;2023-04-24T11:51:25;12.50;99.90
13436;DHT22;6790;49.520;8.504;2023-04-24T11:53:53;12.40;99.90
13436;DHT22;6790;49.520;8.504;2023-04-24T11:56:21;12.30;99.90
13436;DHT22;6790;49.520;8.504;2023-04-24T11:58:48;12.10;99.90
13436;DHT22;6790;49.520;8.504;2023-04-24T12:01:13;12.10;99.90
13436;DHT22;6790;49.520;8.504;2023-04-24T12:03:39;12.10;99.90
13436;DHT22;6790;49.520;8.504;2023-04-24T12:06:09;12.20;99.90
13436;DHT22;6790;49.520;8.504;2023-04-24T12:08:37;12.70;99.90
13436;DHT22;6790;49.520;8.504;2023-04-24T12:11:07;13.50;99.90
13436;DHT22;6790;49.520;8.504;2023-04-24T12:13:33;14.30;99.90
13436;DHT22;6790;49.520;8.504;2023-04-24T12:16:02;15.10;99.90
13436;DHT22;6790;49.520;8.504;2023-04-24T12:18:29;15.50;99.90
13436;DHT22;6790;49.520;8.504;2023-04-24T12:20:55;15.90;99.90
13436;DHT22;6790;49.520;8.504;2023-04-24T12:23:36;15.80;99.90
13436;DHT22;6790;49.520;8.504;2023-04-24T12:26:05;15.60;99.90
13436;DHT22;6790;49.520;8.504;2023-04-24T12:28:38;15.00;99.90
13436;DHT22;6790;49.520;8.504;2023-04-24T12:31:04;14.40;99.90
13436;DHT22;6790;49.520;8.504;2023-04-24T12:33:35;13.80;99.90
13436;DHT22;6790;49.520;8.504;2023-04-24T12:36:01;13.50;99.90
13436;DHT22;6790;49.520;8.504;2023-04-24T12:38:28;13.50;99.90
13436;DHT22;6790;49.520;8.504;2023-04-24T12:41:11;13.60;99.90
13436;DHT22;6790;49.520;8.504;2023-04-24T12:43:37;13.60;99.90
13436;DHT22;6790;49.520;8.504;2023-04-24T12:46:03;13.60;99.90
13436;DHT22;6790;49.520;8.504;2023-04-24T12:48:30;13.70;99.90
13436;DHT22;6790;49.520;8.504;2023-04-24T12:51:00;13.40;99.90
13436;DHT22;6790;49.520;8.504;2023-04-24T12:53:28;13.50;99.90
13436;DHT22;6790;49.520;8.504;2023-04-24T12:55:57;13.80;99.90
13436;DHT22;6790;49.520;8.504;2023-04-24T12:58:23;14.30;99.90
13436;DHT22;6790;49.520;8.504;2023-04-24T13:00:49;14.60;99.90
13436;DHT22;6790;49.520;8.504;2023-04-24T13:03:15;14.40;99.90
13436;DHT22;6790;49.520;8.504;2023-04-24T13:05:42;14.50;99.90
13436;DHT22;6790;49.520;8.504;2023-04-24T13:08:08;14.30;99.90
13436;DHT22;6790;49.520;8.504;2023-04-24T13:10:34;14.50;99.90
13436;DHT22;6790;49.520;8.504;2023-04-24T13:13:00;14.20;99.90
13436;DHT22;6790;49.520;8.504;2023-04-24T13:15:26;13.80;99.90
13436;DHT22;6790;49.520;8.504;2023-04-24T13:17:51;13.70;99.90
13436;DHT22;6790;49.520;8.504;2023-04-24T13:20:17;13.60;99.90
13436;DHT22;6790;49.520;8.504;2023-04-24T13:22:43;13.70;99.90
13436;DHT22;6790;49.520;8.504;2023-04-24T13:25:09;14.00;99.90
13436;DHT22;6790;49.520;8.504;2023-04-24T13:27:35;14.30;99.90
13436;DHT22;6790;49.520;8.504;2023-04-24T13:30:03;14.60;99.90
13436;DHT22;6790;49.520;8.504;2023-04-24T13:32:29;14.70;99.90
13436;DHT22;6790;49.520;8.504;2023-04-24T13:34:56;14.80;99.90
13436;DHT22;6790;49.520;8.504;2023-04-24T13:37:22;14.90;99.90
13436;DHT22;6790;49.520;8.504;2023-04-24T13:39:48;14.80;99.90
13436;DHT22;6790;49.520;8.504;2023-04-24T13:42:13;14.80;99.90
13436;DHT22;6790;49.520;8.504;2023-04-24T13:44:39;14.70;99.90
13436;DHT22;6790;49.520;8.504;2023-04-24T13:47:05;14.70;99.90
13436;DHT22;6790;49.520;8.504;2023-04-24T13:49:31;14.60;99.90
13436;DHT22;6790;49.520;8.504;2023-04-24T13:51:57;14.50;99.70
13436;DHT22;6790;49.520;8.504;2023-04-24T13:54:23;14.30;99.90
13436;DHT22;6790;49.520;8.504;2023-04-24T13:56:51;14.10;99.90
13436;DHT22;6790;49.520;8.504;2023-04-24T13:59:17;13.80;99.90
13436;DHT22;6790;49.520;8.504;2023-04-24T14:01:44;13.60;99.90
13436;DHT22;6790;49.520;8.504;2023-04-24T14:04:10;13.60;99.90
13436;DHT22;6790;49.520;8.504;2023-04-24T14:06:36;13.70;99.90
13436;DHT22;6790;49.520;8.504;2023-04-24T14:09:02;13.90;99.90
13436;DHT22;6790;49.520;8.504;2023-04-24T14:11:28;13.90;99.90
13436;DHT22;6790;49.520;8.504;2023-04-24T14:13:58;14.00;99.90
13436;DHT22;6790;49.520;8.504;2023-04-24T14:16:26;14.00;99.90
13436;DHT22;6790;49.520;8.504;2023-04-24T14:18:56;13.80;99.90
13436;DHT22;6790;49.520;8.504;2023-04-24T14:21:22;13.60;99.90
13436;DHT22;6790;49.520;8.504;2023-04-24T14:23:48;13.50;99.90
13436;DHT22;6790;49.520;8.504;2023-04-24T14:26:13;13.40;99.90
13436;DHT22;6790;49.520;8.504;2023-04-24T14:28:39;13.60;99.90
13436;DHT22;6790;49.520;8.504;2023-04-24T14:31:06;13.50;99.90
13436;DHT22;6790;49.520;8.504;2023-04-24T14:33:32;13.70;99.90
13436;DHT22;6790;49.520;8.504;2023-04-24T14:35:58;14.00;99.90
13436;DHT22;6790;49.520;8.504;2023-04-24T14:38:24;14.30;99.90
13436;DHT22;6790;49.520;8.504;2023-04-24T14:40:49;15.00;99.90
13436;DHT22;6790;49.520;8.504;2023-04-24T14:43:16;15.10;99.90
13436;DHT22;6790;49.520;8.504;2023-04-24T14:45:41;14.90;99.90
13436;DHT22;6790;49.520;8.504;2023-04-24T14:48:07;14.60;99.90
13436;DHT22;6790;49.520;8.504;2023-04-24T14:50:33;14.40;99.90
13436;DHT22;6790;49.520;8.504;2023-04-24T14:52:59;14.20;99.90
13436;DHT22;6790;49.520;8.504;2023-04-24T14:55:27;14.20;99.90
13436;DHT22;6790;49.520;8.504;2023-04-24T14:57:53;13.90;99.90
13436;DHT22;6790;49.520;8.504;2023-04-24T15:00:19;13.60;99.90
13436;DHT22;6790;49.520;8.504;2023-04-24T15:02:45;13.30;99.90
13436;DHT22;6790;49.520;8.504;2023-04-24T15:05:11;13.20;99.90
13436;DHT22;6790;49.520;8.504;2023-04-24T15:07:37;13.00;99.90
13436;DHT22;6790;49.520;8.504;2023-04-24T15:10:04;12.90;99.90
13436;DHT22;6790;49.520;8.504;2023-04-24T15:12:30;12.80;99.90
13436;DHT22;6790;49.520;8.504;2023-04-24T15:14:58;12.80;99.90
13436;DHT22;6790;49.520;8.504;2023-04-24T15:17:24;12.60;99.90
13436;DHT22;6790;49.520;8.504;2023-04-24T15:19:50;12.40;99.90
13436;DHT22;6790;49.520;8.504;2023-04-24T15:22:16;12.50;99.90
13436;DHT22;6790;49.520;8.504;2023-04-24T15:24:41;12.50;99.90
13436;DHT22;6790;49.520;8.504;2023-04-24T15:27:10;12.80;99.90
13436;DHT22;6790;49.520;8.504;2023-04-24T15:29:36;13.00;99.90
13436;DHT22;6790;49.520;8.504;2023-04-24T15:32:02;13.20;99.90
13436;DHT22;6790;49.520;8.504;2023-04-24T15:34:27;13.60;99.90
13436;DHT22;6790;49.520;8.504;2023-04-24T15:36:53;14.10;99.90
13436;DHT22;6790;49.520;8.504;2023-04-24T15:39:22;14.40;99.90
13436;DHT22;6790;49.520;8.504;2023-04-24T15:41:49;14.50;99.90
13436;DHT22;6790;49.520;8.504;2023-04-24T15:44:15;14.70;99.90
13436;DHT22;6790;49.520;8.504;2023-04-24T15:46:41;14.50;99.90
13436;DHT22;6790;49.520;8.504;2023-04-24T15:49:07;13.70;99.90
13436;DHT22;6790;49.520;8.504;2023-04-24T15:51:32;13.70;99.90
13436;DHT22;6790;49.520;8.504;2023-04-24T15:53:58;13.50;99.90